createdAt,value
2018-10-11T00:01:52.622Z,13.27
2018-10-11T00:04:23.795Z,14.23
2018-10-11T00:06:55.287Z,13.57
2018-10-11T00:09:27.411Z,12.00
2018-10-11T00:11:58.835Z,13.53
2018-10-11T00:14:29.914Z,14.13
2018-10-11T00:17:01.176Z,13.20
2018-10-11T00:19:32.460Z,13.10
2018-10-11T00:22:04.589Z,13.57
2018-10-11T00:24:36.844Z,13.30
2018-10-11T00:27:08.435Z,14.13
2018-10-11T00:29:39.539Z,12.97
2018-10-11T00:32:11.297Z,14.50
2018-10-11T00:34:42.447Z,13.93
2018-10-11T00:37:13.583Z,13.17
2018-10-11T00:39:44.981Z,13.73
2018-10-11T00:42:16.367Z,12.53
2018-10-11T00:44:47.499Z,14.33
2018-10-11T00:47:19.047Z,13.17
2018-10-11T00:49:50.319Z,13.37
2018-10-11T00:52:22.127Z,12.73
2018-10-11T00:54:53.326Z,12.60
2018-10-11T00:57:25.063Z,13.83
2018-10-11T00:59:56.190Z,13.33
2018-10-11T01:02:28.527Z,15.03
2018-10-11T01:04:59.970Z,15.57
2018-10-11T01:07:31.595Z,14.43
2018-10-11T01:10:07.421Z,13.30
2018-10-11T01:12:38.998Z,15.17
2018-10-11T01:15:10.187Z,13.80
2018-10-11T01:17:41.966Z,16.60
2018-10-11T01:20:13.137Z,14.70
2018-10-11T01:22:48.179Z,13.87
2018-10-11T01:25:19.489Z,15.33
2018-10-11T01:27:51.047Z,15.77
2018-10-11T01:30:22.418Z,13.40
2018-10-11T01:32:54.567Z,16.70
2018-10-11T01:35:26.223Z,14.10
2018-10-11T01:37:57.828Z,13.60
2018-10-11T01:40:29.164Z,14.13
2018-10-11T01:43:07.143Z,15.47
2018-10-11T01:45:38.581Z,14.20
2018-10-11T01:48:09.999Z,13.80
2018-10-11T01:50:41.155Z,14.90
2018-10-11T01:53:12.788Z,14.47
2018-10-11T01:55:43.983Z,12.83
2018-10-11T01:58:15.360Z,14.27
2018-10-11T02:00:46.614Z,14.60
2018-10-11T02:03:17.975Z,15.00
2018-10-11T02:05:49.228Z,14.33
2018-10-11T02:08:21.144Z,13.30
2018-10-11T02:11:05.507Z,13.80
2018-10-11T02:13:36.971Z,14.53
2018-10-11T02:16:08.488Z,13.33
2018-10-11T02:18:40.960Z,13.53
2018-10-11T02:21:12.143Z,13.70
2018-10-11T02:23:43.748Z,15.93
2018-10-11T02:26:15.659Z,13.93
2018-10-11T02:28:47.647Z,13.80
2018-10-11T02:31:18.885Z,14.80
2018-10-11T02:33:50.385Z,12.73
2018-10-11T02:36:21.427Z,14.30
2018-10-11T02:38:53.057Z,17.00
2018-10-11T02:41:24.695Z,13.83
2018-10-11T02:43:56.612Z,15.33
2018-10-11T02:46:27.759Z,15.90
2018-10-11T02:48:59.922Z,12.80
2018-10-11T02:51:31.293Z,15.00
2018-10-11T02:54:04.808Z,17.03
2018-10-11T02:56:37.481Z,13.97
2018-10-11T02:59:19.906Z,15.57
2018-10-11T03:01:51.625Z,14.23
2018-10-11T03:04:23.423Z,13.60
2018-10-11T03:06:55.331Z,13.90
2018-10-11T03:09:27.478Z,14.00
2018-10-11T03:12:00.319Z,14.30
2018-10-11T03:14:31.800Z,14.17
2018-10-11T03:17:03.211Z,13.20
2018-10-11T03:19:34.867Z,15.10
2018-10-11T03:22:06.046Z,14.43
2018-10-11T03:24:38.196Z,16.10
2018-10-11T03:27:09.527Z,14.10
2018-10-11T03:29:41.048Z,17.20
2018-10-11T03:32:12.160Z,17.67
2018-10-11T03:34:44.205Z,15.70
2018-10-11T03:37:15.533Z,16.10
2018-10-11T03:39:47.213Z,17.70
2018-10-11T03:42:18.607Z,19.20
2018-10-11T03:44:49.961Z,19.50
2018-10-11T03:47:21.261Z,16.90
2018-10-11T03:49:52.988Z,17.90
2018-10-11T03:52:24.682Z,18.80
2018-10-11T03:54:56.181Z,19.27
2018-10-11T03:57:27.659Z,18.73
2018-10-11T03:59:59.427Z,17.70
2018-10-11T04:02:30.639Z,20.17
2018-10-11T04:05:05.015Z,20.20
2018-10-11T04:07:36.381Z,20.40
2018-10-11T04:10:08.045Z,19.83
2018-10-11T04:12:40.520Z,22.43
2018-10-11T04:15:11.992Z,22.37
2018-10-11T04:17:43.415Z,22.30
2018-10-11T04:20:15.199Z,22.43
2018-10-11T04:22:46.272Z,23.23
2018-10-11T04:25:18.015Z,20.90
2018-10-11T04:27:49.212Z,22.57
2018-10-11T04:30:20.792Z,20.47
2018-10-11T04:32:52.268Z,22.80
2018-10-11T04:35:23.664Z,21.10
2018-10-11T04:37:55.013Z,21.00
2018-10-11T04:40:26.552Z,21.70
2018-10-11T04:42:58.120Z,21.50
2018-10-11T04:45:29.991Z,21.17
2018-10-11T04:48:01.235Z,20.43
2018-10-11T04:50:32.912Z,23.30
2018-10-11T04:53:04.569Z,21.93
2018-10-11T04:55:36.018Z,20.27
2018-10-11T04:58:07.455Z,20.60
2018-10-11T05:00:39.146Z,20.07
2018-10-11T05:03:11.935Z,20.30
2018-10-11T05:05:44.219Z,20.33
2018-10-11T05:08:15.618Z,19.77
2018-10-11T05:10:47.100Z,19.67
2018-10-11T05:13:19.775Z,20.73
2018-10-11T05:15:51.227Z,19.00
2018-10-11T05:18:23.311Z,19.60
2018-10-11T05:20:55.076Z,20.33
2018-10-11T05:23:26.527Z,19.87
2018-10-11T05:25:58.082Z,19.40
2018-10-11T05:28:29.328Z,19.47
2018-10-11T05:31:00.927Z,18.40
2018-10-11T05:33:32.286Z,18.27
2018-10-11T05:36:04.712Z,18.63
2018-10-11T05:38:35.998Z,18.40
2018-10-11T05:41:08.372Z,19.07
2018-10-11T05:43:40.203Z,19.57
2018-10-11T05:46:17.728Z,18.27
2018-10-11T05:48:49.627Z,19.17
2018-10-11T05:51:22.412Z,17.63
2018-10-11T05:53:55.848Z,18.13
2018-10-11T05:56:28.928Z,17.83
2018-10-11T05:59:01.188Z,19.03
2018-10-11T06:01:33.524Z,17.43
2018-10-11T06:04:05.906Z,19.37
2018-10-11T06:06:37.467Z,19.30
2018-10-11T06:09:10.182Z,17.57
2018-10-11T06:11:42.592Z,17.60
2018-10-11T06:14:16.388Z,17.77
2018-10-11T06:16:47.772Z,17.50
2018-10-11T06:19:19.068Z,17.40
2018-10-11T06:21:50.352Z,16.80
2018-10-11T06:24:21.635Z,18.90
2018-10-11T06:26:52.963Z,17.90
2018-10-11T06:29:24.406Z,18.50
2018-10-11T06:31:56.270Z,17.80
2018-10-11T06:34:27.988Z,16.00
2018-10-11T06:37:01.189Z,17.17
2018-10-11T06:39:32.645Z,17.70
2018-10-11T06:42:03.909Z,17.10
2018-10-11T06:44:35.993Z,16.63
2018-10-11T06:47:07.880Z,17.53
2018-10-11T06:49:39.376Z,16.73
2018-10-11T06:52:10.891Z,17.63
2018-10-11T06:54:42.310Z,16.67
2018-10-11T06:57:13.495Z,16.60
2018-10-11T06:59:44.600Z,19.00
2018-10-11T07:02:15.827Z,17.57
2018-10-11T07:04:46.764Z,18.13
2018-10-11T07:07:18.043Z,17.80
2018-10-11T07:09:49.035Z,18.40
2018-10-11T07:12:20.143Z,18.27
2018-10-11T07:14:51.885Z,18.80
2018-10-11T07:17:22.887Z,18.07
2018-10-11T07:19:53.962Z,19.10
2018-10-11T07:22:25.627Z,19.50
2018-10-11T07:24:56.656Z,17.47
2018-10-11T07:27:27.952Z,17.20
2018-10-11T07:29:59.191Z,16.60
2018-10-11T07:32:30.596Z,19.20
2018-10-11T07:35:02.321Z,18.77
2018-10-11T07:37:33.763Z,17.20
2018-10-11T07:40:04.871Z,17.60
2018-10-11T07:42:36.159Z,18.43
2018-10-11T07:45:07.304Z,18.87
2018-10-11T07:47:38.815Z,17.30
2018-10-11T07:50:09.955Z,19.30
2018-10-11T07:52:41.320Z,16.97
2018-10-11T07:55:12.315Z,16.83
2018-10-11T07:57:43.697Z,17.97
2018-10-11T08:00:15.153Z,17.30
2018-10-11T08:02:46.516Z,15.63
2018-10-11T08:05:17.788Z,16.57
2018-10-11T08:07:49.134Z,16.20
2018-10-11T08:10:20.471Z,17.10
2018-10-11T08:12:52.174Z,16.17
2018-10-11T08:15:24.789Z,16.10
2018-10-11T08:17:56.628Z,17.17
2018-10-11T08:20:27.679Z,15.83
2018-10-11T08:22:59.541Z,14.97
2018-10-11T08:25:30.963Z,16.30
2018-10-11T08:28:02.643Z,15.30
2018-10-11T08:30:33.999Z,15.93
2018-10-11T08:33:05.772Z,18.30
2018-10-11T08:35:37.027Z,18.17
2018-10-11T08:38:08.458Z,17.80
2018-10-11T08:40:39.707Z,17.50
2018-10-11T08:43:11.159Z,16.17
2018-10-11T08:45:42.257Z,14.70
2018-10-11T08:48:13.505Z,14.93
2018-10-11T08:50:44.941Z,15.13
2018-10-11T08:53:16.552Z,15.83
2018-10-11T08:55:48.829Z,14.30
2018-10-11T08:58:20.259Z,15.43
2018-10-11T09:00:52.995Z,16.27
2018-10-11T09:03:24.718Z,14.93
2018-10-11T09:05:56.072Z,14.30
2018-10-11T09:08:28.088Z,15.00
2018-10-11T09:10:59.690Z,15.77
2018-10-11T09:13:31.850Z,15.23
2018-10-11T09:16:05.499Z,15.93
2018-10-11T09:18:36.997Z,15.40
2018-10-11T09:21:08.389Z,15.70
2018-10-11T09:23:40.018Z,14.70
2018-10-11T09:26:11.696Z,14.80
2018-10-11T09:28:42.930Z,16.33
2018-10-11T09:31:13.989Z,13.77
2018-10-11T09:33:45.141Z,15.00
2018-10-11T09:36:16.423Z,12.97
2018-10-11T09:38:48.015Z,14.70
2018-10-11T09:41:19.389Z,16.10
2018-10-11T09:43:51.108Z,15.07
2018-10-11T09:46:22.499Z,15.50
2018-10-11T09:48:54.096Z,14.13
2018-10-11T09:51:25.535Z,13.83
2018-10-11T09:53:56.836Z,13.17
2018-10-11T09:56:40.093Z,14.57
2018-10-11T09:59:11.419Z,13.37
2018-10-11T10:01:47.183Z,13.63
2018-10-11T10:04:18.816Z,14.57
2018-10-11T10:06:50.263Z,14.13
2018-10-11T10:09:21.727Z,12.50
2018-10-11T10:11:52.931Z,12.03
2018-10-11T10:14:24.443Z,15.93
2018-10-11T10:16:56.787Z,15.20
2018-10-11T10:19:28.883Z,11.40
2018-10-11T10:22:00.228Z,12.23
2018-10-11T10:24:32.247Z,12.87
2018-10-11T10:27:03.909Z,12.50
2018-10-11T10:29:35.936Z,16.90
2018-10-11T10:32:08.256Z,18.37
2018-10-11T10:34:39.876Z,19.47
2018-10-11T10:37:11.095Z,19.53
2018-10-11T10:39:43.028Z,18.33
2018-10-11T10:42:14.184Z,18.60
2018-10-11T10:44:45.906Z,18.30
2018-10-11T10:47:16.807Z,18.93
2018-10-11T10:49:48.011Z,20.63
2018-10-11T10:52:18.936Z,18.13
2018-10-11T10:54:50.013Z,19.63
2018-10-11T10:57:20.951Z,19.30
2018-10-11T10:59:52.232Z,19.07
2018-10-11T11:02:23.163Z,19.97
2018-10-11T11:04:54.390Z,19.73
2018-10-11T11:07:25.447Z,17.80
2018-10-11T11:09:57.226Z,19.10
2018-10-11T11:12:28.318Z,19.73
2018-10-11T11:15:00.023Z,19.33
2018-10-11T11:17:32.875Z,18.40
2018-10-11T11:20:04.339Z,18.90
2018-10-11T11:22:35.698Z,19.10
2018-10-11T11:25:07.900Z,19.03
2018-10-11T11:27:39.607Z,18.90
2018-10-11T11:30:11.584Z,19.03
2018-10-11T11:32:43.141Z,20.00
2018-10-11T11:35:15.007Z,19.60
2018-10-11T11:37:46.740Z,18.40
2018-10-11T11:40:18.201Z,20.33
2018-10-11T11:42:49.253Z,19.13
2018-10-11T11:45:21.583Z,21.03
2018-10-11T11:47:52.970Z,18.00
2018-10-11T11:50:24.453Z,18.10
2018-10-11T11:52:56.935Z,19.10
2018-10-11T11:55:28.600Z,21.10
2018-10-11T11:58:00.001Z,18.17
2018-10-11T12:00:31.632Z,23.73
2018-10-11T12:03:02.970Z,19.20
2018-10-11T12:05:34.663Z,19.50
2018-10-11T12:08:06.868Z,21.87
2018-10-11T12:10:38.758Z,17.80
2018-10-11T12:13:12.215Z,19.17
2018-10-11T12:15:45.051Z,20.43
2018-10-11T12:18:17.311Z,20.77
2018-10-11T12:20:49.001Z,18.00
2018-10-11T12:23:20.199Z,19.73
2018-10-11T12:25:51.762Z,18.90
2018-10-11T12:28:23.410Z,18.97
2018-10-11T12:30:54.937Z,18.33
2018-10-11T12:33:26.343Z,16.80
2018-10-11T12:35:58.301Z,17.50
2018-10-11T12:38:29.561Z,19.47
2018-10-11T12:41:01.676Z,19.90
2018-10-11T12:43:32.826Z,17.77
2018-10-11T12:46:04.448Z,18.53
2018-10-11T12:48:35.712Z,16.87
2018-10-11T12:51:07.359Z,17.20
2018-10-11T12:53:42.243Z,18.03
2018-10-11T12:56:11.131Z,18.43
2018-10-11T12:58:42.497Z,19.33
2018-10-11T13:01:17.271Z,17.50
2018-10-11T13:03:45.854Z,18.00
2018-10-11T13:06:17.396Z,18.13
2018-10-11T13:08:48.672Z,18.80
2018-10-11T13:11:20.386Z,18.73
2018-10-11T13:13:53.009Z,17.90
2018-10-11T13:16:23.291Z,15.83
2018-10-11T13:18:56.330Z,18.13
2018-10-11T13:21:28.295Z,17.50
2018-10-11T13:23:59.722Z,17.83
2018-10-11T13:26:31.443Z,18.50
2018-10-11T13:29:03.739Z,17.20
2018-10-11T13:31:35.507Z,16.40
2018-10-11T13:34:07.105Z,15.13
2018-10-11T13:36:38.811Z,15.70
2018-10-11T13:39:11.071Z,15.33
2018-10-11T13:41:42.828Z,16.20
2018-10-11T13:44:14.162Z,17.00
2018-10-11T13:46:45.624Z,17.27
2018-10-11T13:49:19.061Z,15.90
2018-10-11T13:51:50.627Z,16.67
2018-10-11T13:54:21.739Z,15.50
2018-10-11T13:56:57.008Z,15.97
2018-10-11T13:59:24.958Z,17.07
2018-10-11T14:01:56.618Z,16.87
2018-10-11T14:04:27.997Z,16.40
2018-10-11T14:06:59.602Z,15.87
2018-10-11T14:09:30.834Z,17.27
2018-10-11T14:12:02.283Z,17.27
2018-10-11T14:14:33.617Z,16.13
2018-10-11T14:17:05.195Z,14.97
2018-10-11T14:19:37.919Z,17.03
2018-10-11T14:22:09.538Z,15.50
2018-10-11T14:24:41.348Z,16.83
2018-10-11T14:27:13.031Z,15.97
2018-10-11T14:29:44.294Z,16.37
2018-10-11T14:32:16.079Z,16.20
2018-10-11T14:34:47.122Z,15.53
2018-10-11T14:37:18.865Z,16.63
2018-10-11T14:39:50.677Z,15.97
2018-10-11T14:42:22.312Z,15.60
2018-10-11T14:44:53.667Z,15.73
2018-10-11T14:47:25.539Z,16.53
2018-10-11T14:49:56.926Z,17.10
2018-10-11T14:52:28.432Z,16.53
2018-10-11T14:55:00.034Z,17.20
2018-10-11T14:57:31.229Z,17.27
2018-10-11T15:00:05.073Z,17.47
2018-10-11T15:02:37.460Z,17.23
2018-10-11T15:05:10.889Z,19.03
2018-10-11T15:07:42.537Z,17.27
2018-10-11T15:10:13.898Z,17.63
2018-10-11T15:12:45.432Z,18.80
2018-10-11T15:15:16.595Z,15.30
2018-10-11T15:17:48.061Z,17.73
2018-10-11T15:20:20.219Z,16.73
2018-10-11T15:22:52.040Z,17.50
2018-10-11T15:25:23.511Z,17.60
2018-10-11T15:27:55.310Z,15.80
2018-10-11T15:30:26.542Z,18.47
2018-10-11T15:33:02.187Z,16.97
2018-10-11T15:35:33.583Z,18.50
2018-10-11T15:38:05.450Z,18.80
2018-10-11T15:40:36.609Z,17.53
2018-10-11T15:43:07.986Z,16.97
2018-10-11T15:45:39.166Z,18.73
2018-10-11T15:48:10.867Z,18.83
2018-10-11T15:50:41.918Z,17.70
2018-10-11T15:53:13.407Z,19.27
2018-10-11T15:55:44.627Z,18.60
2018-10-11T15:58:16.229Z,19.10
2018-10-11T16:00:47.446Z,19.43
2018-10-11T16:03:19.052Z,17.70
2018-10-11T16:05:50.612Z,19.27
2018-10-11T16:08:22.223Z,17.37
2018-10-11T16:10:53.484Z,18.60
2018-10-11T16:13:25.356Z,19.67
2018-10-11T16:15:56.598Z,18.70
2018-10-11T16:18:28.102Z,17.50
2018-10-11T16:21:01.048Z,19.40
2018-10-11T16:23:33.251Z,19.03
2018-10-11T16:26:05.736Z,18.80
2018-10-11T16:28:37.555Z,19.40
2018-10-11T16:31:08.807Z,17.70
2018-10-11T16:33:41.355Z,18.50
2018-10-11T16:36:12.675Z,17.20
2018-10-11T16:38:44.155Z,19.93
2018-10-11T16:41:15.435Z,17.80
2018-10-11T16:43:46.800Z,17.33
2018-10-11T16:46:18.045Z,17.10
2018-10-11T16:48:50.400Z,17.70
2018-10-11T16:51:21.944Z,18.70
2018-10-11T16:53:53.375Z,19.10
2018-10-11T16:56:24.560Z,18.43
2018-10-11T16:58:57.652Z,17.73
2018-10-11T17:01:28.833Z,17.20
2018-10-11T17:04:00.221Z,16.50
2018-10-11T17:06:31.783Z,18.00
2018-10-11T17:09:03.326Z,16.20
2018-10-11T17:11:34.609Z,17.80
2018-10-11T17:14:06.402Z,17.10
2018-10-11T17:16:37.400Z,15.50
2018-10-11T17:19:09.172Z,17.30
2018-10-11T17:21:41.778Z,16.60
2018-10-11T17:24:13.714Z,18.27
2018-10-11T17:26:44.948Z,16.27
2018-10-11T17:29:16.284Z,16.20
2018-10-11T17:31:47.322Z,15.40
2018-10-11T17:34:18.451Z,14.60
2018-10-11T17:36:49.199Z,14.80
2018-10-11T17:39:20.479Z,16.07
2018-10-11T17:41:51.507Z,16.63
2018-10-11T17:44:22.692Z,14.73
2018-10-11T17:46:53.670Z,13.77
2018-10-11T17:49:24.987Z,13.73
2018-10-11T17:51:57.919Z,13.67
2018-10-11T17:54:29.230Z,13.20
2018-10-11T17:57:00.196Z,14.00
2018-10-11T17:59:32.087Z,13.00
2018-10-11T18:02:04.119Z,12.07
2018-10-11T18:04:35.871Z,11.10
2018-10-11T18:07:07.114Z,11.23
2018-10-11T18:09:39.043Z,9.77
2018-10-11T18:12:10.433Z,9.73
2018-10-11T18:14:41.803Z,7.70
2018-10-11T18:17:13.186Z,9.17
2018-10-11T18:19:44.772Z,6.63
2018-10-11T18:22:17.108Z,6.33
2018-10-11T18:24:49.068Z,7.13
2018-10-11T18:27:20.339Z,6.47
2018-10-11T18:29:51.752Z,6.00
2018-10-11T18:32:23.207Z,6.53
2018-10-11T18:34:54.592Z,6.63
2018-10-11T18:37:25.851Z,6.70
2018-10-11T18:39:57.266Z,8.00
2018-10-11T18:42:28.564Z,7.53
2018-10-11T18:45:00.037Z,8.00
2018-10-11T18:47:31.931Z,7.00
2018-10-11T18:50:04.262Z,8.27
2018-10-11T18:52:35.475Z,7.30
2018-10-11T18:55:08.326Z,8.30
2018-10-11T18:57:39.756Z,8.13
2018-10-11T19:00:11.291Z,7.27
2018-10-11T19:02:42.580Z,7.60
2018-10-11T19:05:14.152Z,7.03
2018-10-11T19:07:45.458Z,7.50
2018-10-11T19:10:16.621Z,7.80
2018-10-11T19:12:47.483Z,7.77
2018-10-11T19:15:18.750Z,9.10
2018-10-11T19:17:51.287Z,6.80
2018-10-11T19:20:22.678Z,6.90
2018-10-11T19:22:54.603Z,7.40
2018-10-11T19:25:25.864Z,7.40
2018-10-11T19:27:56.772Z,8.97
2018-10-11T19:30:28.102Z,7.43
2018-10-11T19:32:59.479Z,8.37
2018-10-11T19:35:31.366Z,8.20
2018-10-11T19:38:02.858Z,8.30
2018-10-11T19:40:34.539Z,8.40
2018-10-11T19:43:08.632Z,7.97
2018-10-11T19:45:40.531Z,6.87
2018-10-11T19:48:12.128Z,5.87
2018-10-11T19:50:44.020Z,6.57
2018-10-11T19:53:15.330Z,6.97
2018-10-11T19:55:47.018Z,7.53
2018-10-11T19:58:18.293Z,7.37
2018-10-11T20:00:50.071Z,6.40
2018-10-11T20:03:21.787Z,7.87
2018-10-11T20:05:53.323Z,7.97
2018-10-11T20:08:24.658Z,6.77
2018-10-11T20:10:56.219Z,6.60
2018-10-11T20:13:27.573Z,7.10
2018-10-11T20:15:59.187Z,5.90
2018-10-11T20:18:30.352Z,7.67
2018-10-11T20:21:04.039Z,6.33
2018-10-11T20:23:36.987Z,7.33
2018-10-11T20:26:08.969Z,6.50
2018-10-11T20:28:40.566Z,7.27
2018-10-11T20:31:12.647Z,7.70
2018-10-11T20:33:44.067Z,8.83
2018-10-11T20:36:15.402Z,9.20
2018-10-11T20:38:46.719Z,7.80
2018-10-11T20:41:18.146Z,9.60
2018-10-11T20:43:49.589Z,8.87
2018-10-11T20:46:21.385Z,8.80
2018-10-11T20:48:52.474Z,8.53
2018-10-11T20:51:24.107Z,7.50
2018-10-11T20:53:55.170Z,7.40
2018-10-11T20:56:26.959Z,7.87
2018-10-11T20:58:58.139Z,8.00
2018-10-11T21:01:29.731Z,7.77
2018-10-11T21:04:00.751Z,7.80
2018-10-11T21:06:32.292Z,7.70
2018-10-11T21:09:05.798Z,8.73
2018-10-11T21:11:37.071Z,8.00
2018-10-11T21:14:09.200Z,8.83
2018-10-11T21:16:40.719Z,6.47
2018-10-11T21:19:12.306Z,7.70
2018-10-11T21:21:44.082Z,7.83
2018-10-11T21:24:16.628Z,7.73
2018-10-11T21:26:47.899Z,8.90
2018-10-11T21:29:19.132Z,6.50
2018-10-11T21:31:50.599Z,7.33
2018-10-11T21:34:22.169Z,6.43
2018-10-11T21:36:54.102Z,7.40
2018-10-11T21:39:25.835Z,6.33
2018-10-11T21:41:57.370Z,6.03
2018-10-11T21:44:28.835Z,6.60
2018-10-11T21:47:00.908Z,6.80
2018-10-11T21:49:32.065Z,6.10
2018-10-11T21:52:03.767Z,5.97
2018-10-11T21:54:34.845Z,5.80
2018-10-11T21:57:06.652Z,5.27
2018-10-11T21:59:37.831Z,5.70
2018-10-11T22:02:09.646Z,5.73
2018-10-11T22:04:41.291Z,7.87
2018-10-11T22:07:13.031Z,5.20
2018-10-11T22:09:44.409Z,6.90
2018-10-11T22:12:16.291Z,4.67
2018-10-11T22:14:47.516Z,5.50
2018-10-11T22:17:19.160Z,4.73
2018-10-11T22:19:50.698Z,6.13
2018-10-11T22:22:21.987Z,5.70
2018-10-11T22:24:55.345Z,5.07
2018-10-11T22:27:26.782Z,5.70
2018-10-11T22:29:58.074Z,5.80
2018-10-11T22:32:29.419Z,5.60
2018-10-11T22:35:00.743Z,4.73
2018-10-11T22:37:32.214Z,5.47
2018-10-11T22:40:03.544Z,5.63
2018-10-11T22:42:35.151Z,6.23
2018-10-11T22:45:06.550Z,7.00
2018-10-11T22:47:38.024Z,6.77
2018-10-11T22:50:09.275Z,6.30
2018-10-11T22:52:41.102Z,6.57
2018-10-11T22:55:12.431Z,6.60
2018-10-11T22:57:43.962Z,6.33
2018-10-11T23:00:15.523Z,7.37
2018-10-11T23:02:46.920Z,7.07
2018-10-11T23:05:18.420Z,7.37
2018-10-11T23:07:50.137Z,8.17
2018-10-11T23:10:21.536Z,6.27
2018-10-11T23:12:53.226Z,8.70
2018-10-11T23:15:24.451Z,6.90
2018-10-11T23:17:56.102Z,6.30
2018-10-11T23:20:27.218Z,7.00
2018-10-11T23:22:58.775Z,7.13
2018-10-11T23:25:31.036Z,6.90
2018-10-11T23:28:03.219Z,6.10
2018-10-11T23:30:34.539Z,6.87
2018-10-11T23:33:07.120Z,6.83
2018-10-11T23:35:38.282Z,6.90
2018-10-11T23:38:09.976Z,7.37
2018-10-11T23:40:41.410Z,6.13
2018-10-11T23:43:13.622Z,6.77
2018-10-11T23:45:44.919Z,7.30
2018-10-11T23:48:16.756Z,7.00
2018-10-11T23:50:47.956Z,6.70
2018-10-11T23:53:19.635Z,7.17
2018-10-11T23:55:50.803Z,5.43
2018-10-11T23:58:22.216Z,5.97
